Terminal Aerodrome Forecast
Issued by NWS Duluth, MN

Home | Current Version | Previous Version | Text Only | Print | Product List | Glossary On
Versions: 1 2 3 4 5 6 7 8 9 10 11 12 13 14 15 16 17 18 19 20 21 22 23 24 25 26 27 28 29 30 31 32 33
000
FTUS43 KDLH 191500 AAA
TAFDLH
TAF AMD
KDLH 191510Z 1915/2012 17005KT 1SM -SN BR OVC003
     FM191800 17005KT 3SM -SN BR OVC007
     FM192100 16005KT 5SM -SN BR OVC012
     FM200200 17005KT 3SM -SN BR OVC007=

USA.gov is the U.S. government's official web portal to all federal, state and local government web resources and services.